Bartonville, IL (61607)

5:12 AM CDT on August 25, 2016 (GMT -0500)
Charter Oak | | Change Station

Elev 656 ft 40.76 °N, 89.68 °W | Updated 1 minute ago

Partly Cloudy
Partly Cloudy
70.0 °F
Feels Like 70.0 °F
N
0.0
Wind Variable Wind from SW
Gusts 0.0 mph

Today
High -- | Low -- °F
--% Chance of Precip.
Yesterday
High -- | Low -- °F
Precip. -- in
Pressure 29.97 in
Visibility 10.0 miles
Clouds Few 200 ft
Dew Point 69 °F
Humidity 97%
Rainfall 0.59 in
Snow Depth Not available.
6:19 AM 7:41 PM
Waning Gibbous, 47% visible
METAR KPIA 250954Z 22006KT 10SM FEW002 21/21 A2999 RMK AO2 RAE17 SLP149 P0000 T02110211
Pressure 29.97 in
Visibility 10.0 miles
Clouds Few 200 ft
Dew Point 69 °F
Humidity 97%
Rainfall 0.59 in
Snow Depth Not available.
6:19 AM 7:41 PM
Waning Gibbous, 47% visible
METAR KPIA 250954Z 22006KT 10SM FEW002 21/21 A2999 RMK AO2 RAE17 SLP149 P0000 T02110211

10-Day Weather Forecast

Almanac

Astronomy

Aug. 25, 2016 Rise Set
Actual Time
Civil Twilight
Nautical Twilight
Astronomical Twilight
Moon
Length of Visible Light
Length of Day
Tomorrow will be .
, % of the Moon is Illuminated

Today's Extremes

State Highs State Lows

Community

WunderPhotos

Upload Photos

1,934,818 photos uploaded!

WunderBlog® & News

Nearby

Air Quality

  Air Quality AQ Index Pollutant
Not available.

Snow Depth

Station Depth Elevation

Earthquake Activity

City Distance Mag. Time & Date
Minimum magnitude displayed is 2.5.

Coastal Water Temperatures

Place Temperature

Stations

Nearby Weather Stations

Station Location Temp. Windchill Dew Point Humidity Wind Precip. Elev Updated Type
                   

Watches & Warnings

There are currently no watches in effect.